This is the latest recevied weather packets stored in our database for station/object SR2WXM. If no packets are shown the sender has not sent any weather packets the latest 10 day(s).
| Time | Temp. | Humidity | Pressure | Rain* | Wind** | Luminosity | Snow |
|---|---|---|---|---|---|---|---|
| 1778069701 | 18.89° C | 65% | 1003 hPa | 0 mm | - | - | - |
| 1778068801 | 17.78° C | 67% | 1003 hPa | 0 mm | - | - | - |
| 1778067902 | 17.78° C | 65% | 1003 hPa | 0 mm | - | - | - |
| 1778067003 | 18.89° C | 63% | 1003 hPa | 0 mm | - | - | - |
| 1778066103 | 16.67° C | 68% | 1003.3 hPa | 0 mm | - | - | - |
| 1778065202 | 17.78° C | 67% | 1003 hPa | 0 mm | - | - | - |
| 1778064303 | 17.78° C | 66% | 1003 hPa | 0 mm | - | - | - |
| 1778063402 | 18.89° C | 65% | 1003 hPa | 0 mm | - | - | - |
| 1778062503 | 18.89° C | 64% | 1003 hPa | 0 mm | - | - | - |
| 1778061604 | 17.78° C | 67% | 1003 hPa | 0 mm | - | - | - |
| 1778060703 | 18.89° C | 62% | 1003 hPa | 0 mm | - | - | - |
| 1778059803 | 16.67° C | 68% | 1003 hPa | 0 mm | - | - | - |
| 1778058903 | 17.78° C | 66% | 1002.7 hPa | 0 mm | - | - | - |
| 1778058004 | 17.78° C | 66% | 1002.7 hPa | 0 mm | - | - | - |
| 1778057103 | 16.67° C | 68% | 1003 hPa | 0 mm | - | - | - |
| 1778056203 | 15.56° C | 75% | 1002.3 hPa | 0 mm | - | - | - |
| 1778055303 | 15° C | 75% | 1002 hPa | 0 mm | - | - | - |
| 1778054403 | 13.89° C | 74% | 1003 hPa | 0 mm | - | - | - |
| 1778053502 | 13.89° C | 74% | 1002.3 hPa | 0 mm | - | - | - |
| 1778052602 | 13.89° C | 74% | 1002.3 hPa | 0 mm | - | - | - |
| 1778051703 | 15° C | 72% | 1002.3 hPa | 0 mm | - | - | - |
| 1778050804 | 13.89° C | 74% | 1002.3 hPa | 0 mm | - | - | - |
| 1778049902 | 15° C | 72% | 1002 hPa | 0 mm | - | - | - |
| 1778049003 | 13.89° C | 74% | 1002 hPa | 0 mm | - | - | - |
| 1778048103 | 12.78° C | 81% | 1002.3 hPa | 0 mm | - | - | - |
* Rain latest hour (hover to see other rain measurements)
** Current wind speed in m/s (hover to see current wind gust speed)